sensor_id;sensor_type;location;lat;lon;timestamp;P1;durP1;ratioP1;P2;durP2;ratioP2
25435;SDS011;13363;52.772;-3.890;2022-08-19T00:00:29;9.97;;;2.50;;
25435;SDS011;13363;52.772;-3.890;2022-08-19T00:02:55;7.03;;;2.60;;
25435;SDS011;13363;52.772;-3.890;2022-08-19T00:05:21;7.03;;;2.43;;
25435;SDS011;13363;52.772;-3.890;2022-08-19T00:07:48;9.07;;;2.43;;
25435;SDS011;13363;52.772;-3.890;2022-08-19T00:13:38;7.00;;;2.47;;
25435;SDS011;13363;52.772;-3.890;2022-08-19T00:16:04;5.97;;;2.37;;
25435;SDS011;13363;52.772;-3.890;2022-08-19T00:18:31;4.57;;;2.03;;
25435;SDS011;13363;52.772;-3.890;2022-08-19T00:20:57;10.43;;;2.60;;
25435;SDS011;13363;52.772;-3.890;2022-08-19T00:23:24;11.63;;;2.87;;
25435;SDS011;13363;52.772;-3.890;2022-08-19T00:25:52;5.33;;;2.13;;
25435;SDS011;13363;52.772;-3.890;2022-08-19T00:28:18;8.43;;;2.60;;
25435;SDS011;13363;52.772;-3.890;2022-08-19T00:30:45;7.37;;;2.10;;
25435;SDS011;13363;52.772;-3.890;2022-08-19T00:33:11;10.30;;;2.53;;
25435;SDS011;13363;52.772;-3.890;2022-08-19T00:35:38;6.40;;;2.30;;
25435;SDS011;13363;52.772;-3.890;2022-08-19T00:38:05;5.23;;;2.23;;
25435;SDS011;13363;52.772;-3.890;2022-08-19T00:40:32;11.90;;;2.40;;
25435;SDS011;13363;52.772;-3.890;2022-08-19T00:42:58;8.77;;;2.17;;
25435;SDS011;13363;52.772;-3.890;2022-08-19T00:45:24;9.50;;;2.33;;
25435;SDS011;13363;52.772;-3.890;2022-08-19T00:47:52;9.67;;;2.13;;
25435;SDS011;13363;52.772;-3.890;2022-08-19T00:50:19;7.37;;;2.30;;
25435;SDS011;13363;52.772;-3.890;2022-08-19T00:52:47;8.30;;;2.57;;
25435;SDS011;13363;52.772;-3.890;2022-08-19T00:55:19;6.63;;;2.70;;
25435;SDS011;13363;52.772;-3.890;2022-08-19T00:57:58;5.30;;;1.93;;
25435;SDS011;13363;52.772;-3.890;2022-08-19T01:00:32;5.10;;;2.40;;
25435;SDS011;13363;52.772;-3.890;2022-08-19T01:03:06;7.13;;;2.20;;
25435;SDS011;13363;52.772;-3.890;2022-08-19T01:05:34;3.63;;;2.20;;
25435;SDS011;13363;52.772;-3.890;2022-08-19T01:08:02;3.67;;;2.00;;
25435;SDS011;13363;52.772;-3.890;2022-08-19T01:10:31;7.03;;;2.50;;
25435;SDS011;13363;52.772;-3.890;2022-08-19T01:13:01;11.07;;;2.40;;
25435;SDS011;13363;52.772;-3.890;2022-08-19T01:15:32;10.43;;;2.60;;
25435;SDS011;13363;52.772;-3.890;2022-08-19T01:18:08;5.37;;;2.03;;
25435;SDS011;13363;52.772;-3.890;2022-08-19T01:20:37;5.43;;;2.30;;
25435;SDS011;13363;52.772;-3.890;2022-08-19T01:23:04;9.27;;;2.97;;
25435;SDS011;13363;52.772;-3.890;2022-08-19T01:25:32;3.17;;;2.53;;
25435;SDS011;13363;52.772;-3.890;2022-08-19T01:28:06;8.47;;;2.47;;
25435;SDS011;13363;52.772;-3.890;2022-08-19T01:30:33;4.83;;;2.10;;
25435;SDS011;13363;52.772;-3.890;2022-08-19T01:33:00;7.17;;;2.30;;
25435;SDS011;13363;52.772;-3.890;2022-08-19T01:35:28;6.00;;;2.03;;
25435;SDS011;13363;52.772;-3.890;2022-08-19T01:37:57;6.50;;;2.00;;
25435;SDS011;13363;52.772;-3.890;2022-08-19T01:40:26;6.13;;;1.90;;
25435;SDS011;13363;52.772;-3.890;2022-08-19T01:42:56;10.93;;;3.37;;
25435;SDS011;13363;52.772;-3.890;2022-08-19T01:45:23;8.80;;;2.83;;
25435;SDS011;13363;52.772;-3.890;2022-08-19T01:47:51;6.10;;;2.13;;
25435;SDS011;13363;52.772;-3.890;2022-08-19T01:50:18;4.33;;;2.63;;
25435;SDS011;13363;52.772;-3.890;2022-08-19T01:52:44;13.40;;;2.70;;
25435;SDS011;13363;52.772;-3.890;2022-08-19T01:55:11;6.37;;;2.40;;
25435;SDS011;13363;52.772;-3.890;2022-08-19T01:57:43;7.17;;;2.37;;
25435;SDS011;13363;52.772;-3.890;2022-08-19T02:00:14;9.03;;;2.80;;
25435;SDS011;13363;52.772;-3.890;2022-08-19T02:02:41;7.57;;;2.00;;
25435;SDS011;13363;52.772;-3.890;2022-08-19T02:05:08;6.23;;;2.17;;
25435;SDS011;13363;52.772;-3.890;2022-08-19T02:07:35;4.60;;;2.33;;
25435;SDS011;13363;52.772;-3.890;2022-08-19T02:10:06;8.80;;;2.60;;
25435;SDS011;13363;52.772;-3.890;2022-08-19T02:12:34;4.50;;;2.00;;
25435;SDS011;13363;52.772;-3.890;2022-08-19T02:15:00;7.17;;;2.00;;
25435;SDS011;13363;52.772;-3.890;2022-08-19T02:17:27;6.77;;;2.13;;
25435;SDS011;13363;52.772;-3.890;2022-08-19T02:19:57;6.50;;;2.30;;
25435;SDS011;13363;52.772;-3.890;2022-08-19T02:22:23;5.57;;;2.57;;
25435;SDS011;13363;52.772;-3.890;2022-08-19T02:24:51;6.10;;;2.10;;
25435;SDS011;13363;52.772;-3.890;2022-08-19T02:27:17;6.50;;;2.00;;
25435;SDS011;13363;52.772;-3.890;2022-08-19T02:29:44;6.63;;;2.77;;
25435;SDS011;13363;52.772;-3.890;2022-08-19T02:32:11;7.87;;;2.03;;
25435;SDS011;13363;52.772;-3.890;2022-08-19T02:34:37;8.67;;;2.63;;
25435;SDS011;13363;52.772;-3.890;2022-08-19T02:37:03;6.33;;;3.17;;
25435;SDS011;13363;52.772;-3.890;2022-08-19T02:39:29;5.53;;;2.00;;
25435;SDS011;13363;52.772;-3.890;2022-08-19T02:41:54;7.73;;;1.90;;
25435;SDS011;13363;52.772;-3.890;2022-08-19T02:44:20;5.13;;;2.47;;
25435;SDS011;13363;52.772;-3.890;2022-08-19T02:46:48;5.90;;;2.10;;
25435;SDS011;13363;52.772;-3.890;2022-08-19T02:49:15;6.50;;;2.37;;
25435;SDS011;13363;52.772;-3.890;2022-08-19T02:51:42;5.67;;;2.10;;
25435;SDS011;13363;52.772;-3.890;2022-08-19T02:54:10;3.87;;;1.90;;
25435;SDS011;13363;52.772;-3.890;2022-08-19T02:56:38;4.87;;;2.20;;
25435;SDS011;13363;52.772;-3.890;2022-08-19T02:59:05;5.60;;;2.10;;
25435;SDS011;13363;52.772;-3.890;2022-08-19T03:01:33;7.13;;;2.60;;
25435;SDS011;13363;52.772;-3.890;2022-08-19T03:04:00;5.30;;;2.50;;
25435;SDS011;13363;52.772;-3.890;2022-08-19T03:06:28;7.67;;;2.27;;
25435;SDS011;13363;52.772;-3.890;2022-08-19T03:08:55;6.27;;;2.10;;
25435;SDS011;13363;52.772;-3.890;2022-08-19T03:11:22;6.27;;;2.47;;
25435;SDS011;13363;52.772;-3.890;2022-08-19T03:13:50;6.87;;;2.37;;
25435;SDS011;13363;52.772;-3.890;2022-08-19T03:16:17;5.37;;;2.03;;
25435;SDS011;13363;52.772;-3.890;2022-08-19T03:18:45;5.10;;;2.43;;
25435;SDS011;13363;52.772;-3.890;2022-08-19T03:21:18;9.23;;;2.20;;
25435;SDS011;13363;52.772;-3.890;2022-08-19T03:23:48;5.57;;;2.50;;
25435;SDS011;13363;52.772;-3.890;2022-08-19T03:26:15;5.30;;;2.47;;
25435;SDS011;13363;52.772;-3.890;2022-08-19T03:28:42;7.57;;;2.17;;
25435;SDS011;13363;52.772;-3.890;2022-08-19T03:31:13;4.27;;;2.00;;
25435;SDS011;13363;52.772;-3.890;2022-08-19T03:33:39;7.50;;;2.20;;
25435;SDS011;13363;52.772;-3.890;2022-08-19T03:38:35;8.43;;;2.07;;
25435;SDS011;13363;52.772;-3.890;2022-08-19T03:41:04;4.30;;;2.00;;
25435;SDS011;13363;52.772;-3.890;2022-08-19T03:43:33;5.87;;;2.33;;
25435;SDS011;13363;52.772;-3.890;2022-08-19T03:46:05;11.60;;;2.50;;
25435;SDS011;13363;52.772;-3.890;2022-08-19T03:48:33;7.63;;;2.50;;
25435;SDS011;13363;52.772;-3.890;2022-08-19T03:51:01;10.03;;;2.47;;
25435;SDS011;13363;52.772;-3.890;2022-08-19T03:53:28;7.13;;;2.10;;
25435;SDS011;13363;52.772;-3.890;2022-08-19T03:55:56;16.80;;;2.80;;
25435;SDS011;13363;52.772;-3.890;2022-08-19T03:58:25;6.67;;;1.97;;
25435;SDS011;13363;52.772;-3.890;2022-08-19T04:00:54;5.73;;;2.10;;
25435;SDS011;13363;52.772;-3.890;2022-08-19T04:03:23;7.73;;;2.57;;
25435;SDS011;13363;52.772;-3.890;2022-08-19T04:05:51;9.33;;;2.90;;
25435;SDS011;13363;52.772;-3.890;2022-08-19T04:08:18;9.07;;;2.23;;
25435;SDS011;13363;52.772;-3.890;2022-08-19T04:10:49;7.30;;;2.40;;
25435;SDS011;13363;52.772;-3.890;2022-08-19T04:13:15;9.33;;;2.60;;
25435;SDS011;13363;52.772;-3.890;2022-08-19T04:15:43;8.20;;;2.63;;
25435;SDS011;13363;52.772;-3.890;2022-08-19T04:18:11;10.77;;;2.77;;
25435;SDS011;13363;52.772;-3.890;2022-08-19T04:20:41;11.13;;;2.30;;
25435;SDS011;13363;52.772;-3.890;2022-08-19T04:23:11;8.57;;;2.63;;
25435;SDS011;13363;52.772;-3.890;2022-08-19T04:25:39;9.57;;;2.40;;
25435;SDS011;13363;52.772;-3.890;2022-08-19T04:28:07;12.50;;;2.97;;
25435;SDS011;13363;52.772;-3.890;2022-08-19T04:30:39;11.90;;;2.47;;
25435;SDS011;13363;52.772;-3.890;2022-08-19T04:33:06;7.53;;;2.60;;
25435;SDS011;13363;52.772;-3.890;2022-08-19T04:35:39;8.87;;;2.90;;
25435;SDS011;13363;52.772;-3.890;2022-08-19T04:38:07;7.33;;;2.07;;
25435;SDS011;13363;52.772;-3.890;2022-08-19T04:40:39;9.43;;;2.80;;
25435;SDS011;13363;52.772;-3.890;2022-08-19T04:43:27;8.13;;;2.30;;
25435;SDS011;13363;52.772;-3.890;2022-08-19T04:45:53;11.70;;;2.70;;
25435;SDS011;13363;52.772;-3.890;2022-08-19T04:48:20;11.30;;;3.20;;
25435;SDS011;13363;52.772;-3.890;2022-08-19T04:50:50;5.77;;;2.30;;
25435;SDS011;13363;52.772;-3.890;2022-08-19T04:53:32;8.73;;;2.50;;
25435;SDS011;13363;52.772;-3.890;2022-08-19T04:56:03;8.87;;;2.50;;
25435;SDS011;13363;52.772;-3.890;2022-08-19T04:58:35;7.83;;;2.37;;
25435;SDS011;13363;52.772;-3.890;2022-08-19T05:01:02;9.57;;;2.10;;
25435;SDS011;13363;52.772;-3.890;2022-08-19T05:03:29;7.53;;;2.60;;
25435;SDS011;13363;52.772;-3.890;2022-08-19T05:06:03;7.37;;;2.80;;
25435;SDS011;13363;52.772;-3.890;2022-08-19T05:08:35;33.10;;;3.30;;
25435;SDS011;13363;52.772;-3.890;2022-08-19T05:11:07;8.53;;;2.10;;
25435;SDS011;13363;52.772;-3.890;2022-08-19T05:13:36;12.20;;;2.40;;
25435;SDS011;13363;52.772;-3.890;2022-08-19T05:16:02;13.93;;;3.23;;
25435;SDS011;13363;52.772;-3.890;2022-08-19T05:18:29;11.13;;;2.70;;
25435;SDS011;13363;52.772;-3.890;2022-08-19T05:21:16;12.83;;;2.73;;
25435;SDS011;13363;52.772;-3.890;2022-08-19T05:24:01;10.03;;;2.37;;
25435;SDS011;13363;52.772;-3.890;2022-08-19T05:26:28;11.20;;;2.73;;
25435;SDS011;13363;52.772;-3.890;2022-08-19T05:28:54;4.93;;;2.17;;
25435;SDS011;13363;52.772;-3.890;2022-08-19T05:31:20;9.07;;;2.50;;
25435;SDS011;13363;52.772;-3.890;2022-08-19T05:33:47;9.97;;;3.07;;
25435;SDS011;13363;52.772;-3.890;2022-08-19T05:36:13;6.97;;;2.40;;
25435;SDS011;13363;52.772;-3.890;2022-08-19T05:38:39;8.67;;;2.40;;
25435;SDS011;13363;52.772;-3.890;2022-08-19T05:41:09;7.23;;;2.70;;
25435;SDS011;13363;52.772;-3.890;2022-08-19T05:43:36;10.73;;;2.70;;
25435;SDS011;13363;52.772;-3.890;2022-08-19T05:46:02;10.40;;;2.43;;
25435;SDS011;13363;52.772;-3.890;2022-08-19T05:48:34;13.37;;;3.17;;
25435;SDS011;13363;52.772;-3.890;2022-08-19T05:51:06;9.63;;;3.07;;
25435;SDS011;13363;52.772;-3.890;2022-08-19T05:53:34;9.83;;;2.93;;
25435;SDS011;13363;52.772;-3.890;2022-08-19T05:56:10;14.30;;;3.07;;
25435;SDS011;13363;52.772;-3.890;2022-08-19T05:58:38;9.00;;;3.10;;
25435;SDS011;13363;52.772;-3.890;2022-08-19T06:01:08;9.83;;;3.30;;
25435;SDS011;13363;52.772;-3.890;2022-08-19T06:03:38;9.07;;;2.67;;
25435;SDS011;13363;52.772;-3.890;2022-08-19T06:06:05;7.67;;;2.50;;
25435;SDS011;13363;52.772;-3.890;2022-08-19T06:08:34;10.37;;;3.23;;
25435;SDS011;13363;52.772;-3.890;2022-08-19T06:11:14;9.57;;;3.83;;
25435;SDS011;13363;52.772;-3.890;2022-08-19T06:13:41;9.10;;;3.10;;
25435;SDS011;13363;52.772;-3.890;2022-08-19T06:16:08;7.20;;;2.47;;
25435;SDS011;13363;52.772;-3.890;2022-08-19T06:18:34;14.00;;;3.23;;
25435;SDS011;13363;52.772;-3.890;2022-08-19T06:20:59;9.93;;;2.83;;
25435;SDS011;13363;52.772;-3.890;2022-08-19T06:23:29;13.83;;;2.60;;
25435;SDS011;13363;52.772;-3.890;2022-08-19T06:25:55;10.23;;;2.50;;
25435;SDS011;13363;52.772;-3.890;2022-08-19T06:28:21;8.13;;;2.73;;
25435;SDS011;13363;52.772;-3.890;2022-08-19T06:30:48;6.10;;;3.07;;
25435;SDS011;13363;52.772;-3.890;2022-08-19T06:33:16;9.13;;;3.20;;
25435;SDS011;13363;52.772;-3.890;2022-08-19T06:35:42;14.23;;;3.10;;
25435;SDS011;13363;52.772;-3.890;2022-08-19T06:38:08;9.13;;;2.90;;
25435;SDS011;13363;52.772;-3.890;2022-08-19T06:40:34;9.83;;;3.13;;
25435;SDS011;13363;52.772;-3.890;2022-08-19T06:43:02;7.67;;;2.90;;
25435;SDS011;13363;52.772;-3.890;2022-08-19T06:45:28;9.53;;;2.60;;
25435;SDS011;13363;52.772;-3.890;2022-08-19T06:47:55;9.23;;;3.00;;
25435;SDS011;13363;52.772;-3.890;2022-08-19T06:50:24;8.37;;;3.17;;
25435;SDS011;13363;52.772;-3.890;2022-08-19T06:52:51;6.73;;;2.63;;
25435;SDS011;13363;52.772;-3.890;2022-08-19T06:55:17;12.05;;;2.72;;
25435;SDS011;13363;52.772;-3.890;2022-08-19T06:57:43;9.40;;;2.55;;
25435;SDS011;13363;52.772;-3.890;2022-08-19T07:00:11;5.57;;;2.75;;
25435;SDS011;13363;52.772;-3.890;2022-08-19T07:02:42;6.22;;;2.30;;
25435;SDS011;13363;52.772;-3.890;2022-08-19T07:05:09;8.57;;;2.30;;
25435;SDS011;13363;52.772;-3.890;2022-08-19T07:07:39;9.18;;;2.45;;
25435;SDS011;13363;52.772;-3.890;2022-08-19T07:10:10;9.23;;;2.72;;
25435;SDS011;13363;52.772;-3.890;2022-08-19T07:12:37;7.38;;;2.88;;
25435;SDS011;13363;52.772;-3.890;2022-08-19T07:15:05;7.20;;;2.67;;
25435;SDS011;13363;52.772;-3.890;2022-08-19T07:17:33;9.20;;;3.03;;
25435;SDS011;13363;52.772;-3.890;2022-08-19T07:20:03;6.60;;;2.10;;
25435;SDS011;13363;52.772;-3.890;2022-08-19T07:22:33;7.20;;;3.00;;
25435;SDS011;13363;52.772;-3.890;2022-08-19T07:25:03;10.95;;;2.80;;
25435;SDS011;13363;52.772;-3.890;2022-08-19T07:27:32;5.97;;;2.67;;
25435;SDS011;13363;52.772;-3.890;2022-08-19T07:30:02;8.00;;;2.00;;
25435;SDS011;13363;52.772;-3.890;2022-08-19T07:32:29;5.90;;;2.27;;
25435;SDS011;13363;52.772;-3.890;2022-08-19T07:34:59;3.03;;;1.03;;
25435;SDS011;13363;52.772;-3.890;2022-08-19T07:37:30;6.60;;;1.97;;
25435;SDS011;13363;52.772;-3.890;2022-08-19T07:39:56;5.07;;;2.00;;
25435;SDS011;13363;52.772;-3.890;2022-08-19T07:42:24;9.52;;;2.88;;
25435;SDS011;13363;52.772;-3.890;2022-08-19T07:44:57;4.35;;;1.60;;
25435;SDS011;13363;52.772;-3.890;2022-08-19T07:47:24;5.65;;;1.90;;
25435;SDS011;13363;52.772;-3.890;2022-08-19T07:49:53;4.33;;;1.80;;
25435;SDS011;13363;52.772;-3.890;2022-08-19T07:52:21;5.40;;;2.20;;
25435;SDS011;13363;52.772;-3.890;2022-08-19T07:54:47;7.17;;;1.90;;
25435;SDS011;13363;52.772;-3.890;2022-08-19T07:57:14;11.20;;;2.37;;
25435;SDS011;13363;52.772;-3.890;2022-08-19T07:59:41;5.93;;;2.13;;
25435;SDS011;13363;52.772;-3.890;2022-08-19T08:02:07;8.50;;;2.13;;
25435;SDS011;13363;52.772;-3.890;2022-08-19T08:04:34;5.67;;;2.17;;
25435;SDS011;13363;52.772;-3.890;2022-08-19T08:07:19;12.37;;;2.70;;
25435;SDS011;13363;52.772;-3.890;2022-08-19T08:10:05;7.43;;;2.17;;
25435;SDS011;13363;52.772;-3.890;2022-08-19T08:12:35;9.83;;;2.50;;
25435;SDS011;13363;52.772;-3.890;2022-08-19T08:15:08;8.07;;;2.00;;
25435;SDS011;13363;52.772;-3.890;2022-08-19T08:17:41;4.77;;;2.20;;
25435;SDS011;13363;52.772;-3.890;2022-08-19T08:20:09;5.07;;;2.23;;
25435;SDS011;13363;52.772;-3.890;2022-08-19T08:22:46;8.57;;;2.30;;
25435;SDS011;13363;52.772;-3.890;2022-08-19T08:25:32;12.87;;;3.03;;
25435;SDS011;13363;52.772;-3.890;2022-08-19T08:28:05;11.57;;;2.77;;
25435;SDS011;13363;52.772;-3.890;2022-08-19T08:30:38;9.30;;;2.47;;
25435;SDS011;13363;52.772;-3.890;2022-08-19T08:33:12;12.60;;;2.20;;
25435;SDS011;13363;52.772;-3.890;2022-08-19T08:35:44;8.57;;;2.33;;
25435;SDS011;13363;52.772;-3.890;2022-08-19T08:38:21;9.93;;;2.47;;
25435;SDS011;13363;52.772;-3.890;2022-08-19T08:40:52;8.93;;;2.50;;
25435;SDS011;13363;52.772;-3.890;2022-08-19T08:43:39;7.43;;;2.33;;
25435;SDS011;13363;52.772;-3.890;2022-08-19T08:46:39;9.63;;;2.57;;
25435;SDS011;13363;52.772;-3.890;2022-08-19T08:49:43;10.23;;;2.50;;
25435;SDS011;13363;52.772;-3.890;2022-08-19T08:53:14;7.57;;;2.30;;
25435;SDS011;13363;52.772;-3.890;2022-08-19T08:56:10;8.53;;;2.07;;
25435;SDS011;13363;52.772;-3.890;2022-08-19T08:58:47;7.97;;;2.63;;
25435;SDS011;13363;52.772;-3.890;2022-08-19T09:01:54;4.63;;;2.07;;
25435;SDS011;13363;52.772;-3.890;2022-08-19T09:04:26;8.93;;;2.30;;
25435;SDS011;13363;52.772;-3.890;2022-08-19T09:07:16;7.80;;;2.13;;
25435;SDS011;13363;52.772;-3.890;2022-08-19T09:13:06;6.47;;;2.97;;
25435;SDS011;13363;52.772;-3.890;2022-08-19T09:16:14;7.97;;;2.50;;
25435;SDS011;13363;52.772;-3.890;2022-08-19T09:19:15;3.93;;;1.57;;
25435;SDS011;13363;52.772;-3.890;2022-08-19T09:21:49;8.70;;;2.13;;
25435;SDS011;13363;52.772;-3.890;2022-08-19T09:24:21;7.70;;;2.03;;
25435;SDS011;13363;52.772;-3.890;2022-08-19T09:26:49;6.70;;;2.13;;
25435;SDS011;13363;52.772;-3.890;2022-08-19T09:29:18;2.87;;;1.17;;
25435;SDS011;13363;52.772;-3.890;2022-08-19T09:31:55;9.93;;;3.23;;
25435;SDS011;13363;52.772;-3.890;2022-08-19T09:34:24;7.13;;;2.10;;
25435;SDS011;13363;52.772;-3.890;2022-08-19T09:37:10;8.47;;;2.13;;
25435;SDS011;13363;52.772;-3.890;2022-08-19T09:39:53;5.23;;;1.97;;
25435;SDS011;13363;52.772;-3.890;2022-08-19T09:42:27;4.03;;;1.77;;
25435;SDS011;13363;52.772;-3.890;2022-08-19T09:45:02;7.57;;;2.23;;
25435;SDS011;13363;52.772;-3.890;2022-08-19T09:47:31;7.13;;;2.40;;
25435;SDS011;13363;52.772;-3.890;2022-08-19T09:50:04;5.40;;;2.27;;
25435;SDS011;13363;52.772;-3.890;2022-08-19T09:52:36;4.97;;;2.30;;
25435;SDS011;13363;52.772;-3.890;2022-08-19T09:55:03;7.20;;;2.50;;
25435;SDS011;13363;52.772;-3.890;2022-08-19T09:57:33;10.73;;;2.63;;
25435;SDS011;13363;52.772;-3.890;2022-08-19T10:00:00;10.80;;;2.50;;
25435;SDS011;13363;52.772;-3.890;2022-08-19T10:02:36;8.33;;;1.63;;
25435;SDS011;13363;52.772;-3.890;2022-08-19T10:05:03;7.00;;;2.63;;
25435;SDS011;13363;52.772;-3.890;2022-08-19T10:07:48;8.20;;;2.60;;
25435;SDS011;13363;52.772;-3.890;2022-08-19T10:10:14;7.47;;;2.83;;
25435;SDS011;13363;52.772;-3.890;2022-08-19T10:12:40;8.07;;;2.67;;
25435;SDS011;13363;52.772;-3.890;2022-08-19T10:15:06;7.67;;;2.47;;
25435;SDS011;13363;52.772;-3.890;2022-08-19T10:17:34;5.20;;;1.80;;
25435;SDS011;13363;52.772;-3.890;2022-08-19T10:20:01;9.67;;;2.10;;
25435;SDS011;13363;52.772;-3.890;2022-08-19T10:22:30;2.60;;;1.27;;
25435;SDS011;13363;52.772;-3.890;2022-08-19T10:24:56;3.93;;;1.70;;
25435;SDS011;13363;52.772;-3.890;2022-08-19T10:27:22;7.97;;;2.73;;
25435;SDS011;13363;52.772;-3.890;2022-08-19T10:29:49;9.20;;;2.03;;
25435;SDS011;13363;52.772;-3.890;2022-08-19T10:32:15;8.53;;;1.93;;
25435;SDS011;13363;52.772;-3.890;2022-08-19T10:34:41;7.37;;;1.80;;
25435;SDS011;13363;52.772;-3.890;2022-08-19T10:37:07;9.30;;;2.07;;
25435;SDS011;13363;52.772;-3.890;2022-08-19T10:39:34;7.60;;;2.30;;
25435;SDS011;13363;52.772;-3.890;2022-08-19T10:42:05;7.10;;;1.80;;
25435;SDS011;13363;52.772;-3.890;2022-08-19T10:44:35;3.37;;;1.10;;
25435;SDS011;13363;52.772;-3.890;2022-08-19T10:47:02;3.13;;;1.90;;
25435;SDS011;13363;52.772;-3.890;2022-08-19T10:49:29;8.27;;;1.80;;
25435;SDS011;13363;52.772;-3.890;2022-08-19T10:51:57;6.60;;;2.17;;
25435;SDS011;13363;52.772;-3.890;2022-08-19T10:54:52;3.50;;;2.00;;
25435;SDS011;13363;52.772;-3.890;2022-08-19T10:57:40;4.70;;;1.40;;
25435;SDS011;13363;52.772;-3.890;2022-08-19T11:00:09;7.10;;;1.30;;
25435;SDS011;13363;52.772;-3.890;2022-08-19T11:02:37;3.03;;;1.40;;
25435;SDS011;13363;52.772;-3.890;2022-08-19T11:05:03;6.23;;;1.87;;
25435;SDS011;13363;52.772;-3.890;2022-08-19T11:07:31;5.93;;;1.57;;
25435;SDS011;13363;52.772;-3.890;2022-08-19T11:09:57;2.97;;;1.67;;
25435;SDS011;13363;52.772;-3.890;2022-08-19T11:12:23;1.33;;;0.90;;
25435;SDS011;13363;52.772;-3.890;2022-08-19T11:14:49;2.17;;;0.67;;
25435;SDS011;13363;52.772;-3.890;2022-08-19T11:17:15;3.23;;;1.10;;
25435;SDS011;13363;52.772;-3.890;2022-08-19T11:19:41;7.43;;;2.03;;
25435;SDS011;13363;52.772;-3.890;2022-08-19T11:22:10;3.77;;;1.27;;
25435;SDS011;13363;52.772;-3.890;2022-08-19T11:24:36;2.67;;;1.33;;
25435;SDS011;13363;52.772;-3.890;2022-08-19T11:27:06;4.60;;;1.47;;
25435;SDS011;13363;52.772;-3.890;2022-08-19T11:29:34;3.13;;;1.80;;
25435;SDS011;13363;52.772;-3.890;2022-08-19T11:32:04;6.87;;;2.30;;
25435;SDS011;13363;52.772;-3.890;2022-08-19T11:34:32;5.90;;;1.80;;
25435;SDS011;13363;52.772;-3.890;2022-08-19T11:36:58;7.67;;;1.47;;
25435;SDS011;13363;52.772;-3.890;2022-08-19T11:39:25;6.40;;;1.37;;
25435;SDS011;13363;52.772;-3.890;2022-08-19T11:41:53;7.87;;;1.97;;
25435;SDS011;13363;52.772;-3.890;2022-08-19T11:44:20;3.93;;;1.83;;
25435;SDS011;13363;52.772;-3.890;2022-08-19T11:46:46;4.73;;;1.43;;
25435;SDS011;13363;52.772;-3.890;2022-08-19T11:49:13;3.97;;;1.80;;
25435;SDS011;13363;52.772;-3.890;2022-08-19T11:51:40;2.27;;;1.00;;
25435;SDS011;13363;52.772;-3.890;2022-08-19T11:54:08;3.87;;;1.40;;
25435;SDS011;13363;52.772;-3.890;2022-08-19T11:56:36;5.55;;;1.90;;
25435;SDS011;13363;52.772;-3.890;2022-08-19T11:59:02;4.23;;;1.80;;
25435;SDS011;13363;52.772;-3.890;2022-08-19T12:01:29;9.40;;;2.23;;
25435;SDS011;13363;52.772;-3.890;2022-08-19T12:03:55;3.07;;;1.80;;
25435;SDS011;13363;52.772;-3.890;2022-08-19T12:06:26;3.37;;;1.50;;
25435;SDS011;13363;52.772;-3.890;2022-08-19T12:08:57;4.37;;;1.37;;
25435;SDS011;13363;52.772;-3.890;2022-08-19T12:11:25;4.87;;;1.87;;
25435;SDS011;13363;52.772;-3.890;2022-08-19T12:13:52;3.27;;;1.30;;
25435;SDS011;13363;52.772;-3.890;2022-08-19T12:16:20;3.33;;;1.07;;
25435;SDS011;13363;52.772;-3.890;2022-08-19T12:18:50;4.00;;;1.17;;
25435;SDS011;13363;52.772;-3.890;2022-08-19T12:21:18;4.53;;;1.53;;
25435;SDS011;13363;52.772;-3.890;2022-08-19T12:23:47;2.50;;;1.15;;
25435;SDS011;13363;52.772;-3.890;2022-08-19T12:26:15;2.73;;;1.50;;
25435;SDS011;13363;52.772;-3.890;2022-08-19T12:28:41;4.10;;;1.40;;
25435;SDS011;13363;52.772;-3.890;2022-08-19T12:31:07;2.60;;;0.90;;
25435;SDS011;13363;52.772;-3.890;2022-08-19T12:33:37;4.50;;;1.40;;
25435;SDS011;13363;52.772;-3.890;2022-08-19T12:36:05;3.17;;;1.00;;
25435;SDS011;13363;52.772;-3.890;2022-08-19T12:38:33;5.43;;;1.47;;
25435;SDS011;13363;52.772;-3.890;2022-08-19T12:41:00;6.40;;;1.77;;
25435;SDS011;13363;52.772;-3.890;2022-08-19T12:43:28;4.37;;;1.47;;
25435;SDS011;13363;52.772;-3.890;2022-08-19T12:45:55;8.57;;;1.67;;
25435;SDS011;13363;52.772;-3.890;2022-08-19T12:48:21;5.23;;;1.40;;
25435;SDS011;13363;52.772;-3.890;2022-08-19T12:50:46;5.03;;;1.60;;
25435;SDS011;13363;52.772;-3.890;2022-08-19T12:53:13;4.60;;;1.20;;
25435;SDS011;13363;52.772;-3.890;2022-08-19T12:55:40;1.57;;;1.33;;
25435;SDS011;13363;52.772;-3.890;2022-08-19T12:58:07;4.00;;;1.77;;
25435;SDS011;13363;52.772;-3.890;2022-08-19T13:00:34;6.23;;;1.70;;
25435;SDS011;13363;52.772;-3.890;2022-08-19T13:03:00;6.77;;;1.57;;
25435;SDS011;13363;52.772;-3.890;2022-08-19T13:05:28;4.47;;;1.00;;
25435;SDS011;13363;52.772;-3.890;2022-08-19T13:07:56;2.87;;;1.30;;
25435;SDS011;13363;52.772;-3.890;2022-08-19T13:10:25;9.88;;;1.60;;
25435;SDS011;13363;52.772;-3.890;2022-08-19T13:12:53;5.17;;;1.47;;
25435;SDS011;13363;52.772;-3.890;2022-08-19T13:15:20;4.13;;;1.60;;
25435;SDS011;13363;52.772;-3.890;2022-08-19T13:17:47;1.90;;;1.20;;
25435;SDS011;13363;52.772;-3.890;2022-08-19T13:20:15;2.42;;;1.35;;
25435;SDS011;13363;52.772;-3.890;2022-08-19T13:22:44;3.57;;;1.33;;
25435;SDS011;13363;52.772;-3.890;2022-08-19T13:25:11;5.60;;;1.53;;
25435;SDS011;13363;52.772;-3.890;2022-08-19T13:27:37;4.03;;;1.20;;
25435;SDS011;13363;52.772;-3.890;2022-08-19T13:30:05;5.90;;;1.60;;
25435;SDS011;13363;52.772;-3.890;2022-08-19T13:32:51;7.53;;;2.03;;
25435;SDS011;13363;52.772;-3.890;2022-08-19T13:35:36;4.07;;;1.43;;
25435;SDS011;13363;52.772;-3.890;2022-08-19T13:38:06;6.05;;;1.80;;
25435;SDS011;13363;52.772;-3.890;2022-08-19T13:40:32;2.97;;;1.40;;
25435;SDS011;13363;52.772;-3.890;2022-08-19T13:42:59;2.70;;;1.30;;
25435;SDS011;13363;52.772;-3.890;2022-08-19T13:45:26;6.20;;;1.50;;
25435;SDS011;13363;52.772;-3.890;2022-08-19T13:47:54;8.50;;;2.27;;
25435;SDS011;13363;52.772;-3.890;2022-08-19T13:50:26;4.40;;;1.90;;
25435;SDS011;13363;52.772;-3.890;2022-08-19T13:52:54;2.77;;;1.40;;
25435;SDS011;13363;52.772;-3.890;2022-08-19T13:55:21;4.80;;;1.77;;
25435;SDS011;13363;52.772;-3.890;2022-08-19T13:57:51;7.67;;;1.83;;
25435;SDS011;13363;52.772;-3.890;2022-08-19T14:00:18;7.83;;;1.40;;
25435;SDS011;13363;52.772;-3.890;2022-08-19T14:02:45;4.80;;;1.30;;
25435;SDS011;13363;52.772;-3.890;2022-08-19T14:05:14;5.50;;;1.90;;
25435;SDS011;13363;52.772;-3.890;2022-08-19T14:07:41;7.47;;;1.87;;
25435;SDS011;13363;52.772;-3.890;2022-08-19T14:10:08;4.43;;;1.20;;
25435;SDS011;13363;52.772;-3.890;2022-08-19T14:12:35;3.10;;;1.37;;
25435;SDS011;13363;52.772;-3.890;2022-08-19T14:15:02;4.63;;;1.40;;
25435;SDS011;13363;52.772;-3.890;2022-08-19T14:17:30;5.27;;;1.50;;
25435;SDS011;13363;52.772;-3.890;2022-08-19T14:19:56;4.10;;;1.30;;
25435;SDS011;13363;52.772;-3.890;2022-08-19T14:22:23;4.80;;;1.67;;
25435;SDS011;13363;52.772;-3.890;2022-08-19T14:24:49;6.83;;;1.67;;
25435;SDS011;13363;52.772;-3.890;2022-08-19T14:27:15;4.83;;;1.60;;
25435;SDS011;13363;52.772;-3.890;2022-08-19T14:29:41;4.60;;;1.87;;
25435;SDS011;13363;52.772;-3.890;2022-08-19T14:32:07;4.40;;;1.53;;
25435;SDS011;13363;52.772;-3.890;2022-08-19T14:34:33;6.17;;;1.73;;
25435;SDS011;13363;52.772;-3.890;2022-08-19T14:37:02;5.50;;;1.40;;
25435;SDS011;13363;52.772;-3.890;2022-08-19T14:39:28;5.90;;;1.50;;
25435;SDS011;13363;52.772;-3.890;2022-08-19T14:41:54;6.20;;;1.80;;
25435;SDS011;13363;52.772;-3.890;2022-08-19T14:44:21;4.97;;;1.93;;
25435;SDS011;13363;52.772;-3.890;2022-08-19T14:46:47;5.00;;;1.90;;
25435;SDS011;13363;52.772;-3.890;2022-08-19T14:49:13;6.93;;;1.60;;
25435;SDS011;13363;52.772;-3.890;2022-08-19T14:51:39;3.50;;;1.67;;
25435;SDS011;13363;52.772;-3.890;2022-08-19T14:54:05;3.37;;;1.43;;
25435;SDS011;13363;52.772;-3.890;2022-08-19T14:56:31;4.27;;;1.47;;